Detall de PIREP

Printer-friendly versionPDF version

[2014/01/28 08:23:00]
Flight IATA:CT2104
Pilot Number:041
Company ICAO:CAT
Aircraft Type:AT72/F
PAX:46
Departing Airport: LEVC
Destination Airport: LEBB
Alternate Airport:LEMD
Online: VATSIM
Route:CENTA A33 CJN R10 PPN G23 CEGAM
Flight Level:FL190
No Slew and time accel
No pause
Crash detect
Detect pilot in Cockpit between each 30 and 45 minutes
08:23 Zero fuel Weight: 38957 Lbs, Fuel Weight: 3919 Lbs
08:23 VATSIM:LEVC 280800Z 26017KT 9999 FEW030 10/M01 Q1010 NOSIG
08:23 VATSIM:LEBB 280800Z 22012G23KT 170V290 9999 SCT063 07/00 Q1005 NOSIG
08:24 VOICE CATALONIAN
08:28 Parking Brakes off
08:33 Take-off
08:33 Take off Weight: 42809 Lbs
08:33 Wind: 259º @ 017 Knots Heading: 291º
08:33 POS N39º 29´ 22´´ W000º 28´ 57´´
08:33 Gear Up: 145 Knots
08:33 Flaps:1 at 145 Knots
08:33 Flaps:0 at 173 Knots
08:48 Wind:301º@038 Knots Heading: 299º Ground Speed: 210 Knots Altitude 17125 ft
08:50 TOC
08:50 Fuel Weight: 3285 Lb
09:00 TOD
09:00 Fuel Weight: 2996 Lb
09:03 Wind:229º@024 Knots Heading: 354º Ground Speed: 295 Knots Altitude 17942 ft
09:18 Wind:299º@032 Knots Heading: 018º Ground Speed: 273 Knots Altitude 17785 ft
09:33 Wind:216º@030 Knots Heading: 311º Ground Speed: 286 Knots Altitude 14320 ft
09:45 Flaps:1 at 171 Knots
09:48 Wind:235º@023 Knots Heading: 276º Ground Speed: 155 Knots Altitude 5022 ft
09:50 Gear Down: 172 Knots
09:52 Flaps:2 at 158 Knots
09:54 TouchDown:Rate -369 ft/min Speed: 91 Knots
09:54 Flaps:0 at 86 Knots
09:54 VATSIM:LEBB 280930Z 23016G27KT 180V270 9999 SCT063 08/01 Q1003 NOSIG
09:54 Land
09:54 Wind:229º@016 Knots
09:54 Heading: 276º
09:54 Flight Duration: 01:21
09:54 Landing Weight: 40664 Lbs
09:54 POS N43º 18´ 09´´ W002º 55´ 37´´
09:55 Parking brakes on
09:55 Block to Block Duration: 01:27
09:55 Final Fuel: 1697 Lbls
09:55 Spent Fuel: 2222 Lbls
09:55 Flight Length: 334 NM
09:55 TOD Land Length: 229 NM

Exportar CSV

Powered by Drupal - Modified by Danger4k